Weather observations for the past three days for
Harlan, Harlan Municipal Airport
Metric (Imperial)
Date Time (cdt) Wind (kph) Vis. (km) Weather Sky Cond. Temperature (ºC) Relative Humidity Wind Chill (°C) Heat Index (°C) Pressure Precipitation (cm)
Air Dwpt 6 hour altimeter (cm) sea level (mb) 1 hr 3 hr 6 hr
Max. Min.
05 13:35 N 19 G 37 16.09 Fair CLR 14 -2 33% 75.95 0.0
05 13:15 N 24 16.09 Fair CLR 14 -2 33% 75.95 0.0
05 12:55 NW 24 G 41 16.09 Fair CLR 13 -2 36% 75.95 0.0
05 12:35 Vrbl 9 G 31 16.09 Fair CLR 13 -3 33% 75.97 0.0
05 12:15 N 20 16.09 Fair CLR 13 -2 36% 75.97 0.0
05 11:55 N 19 G 33 16.09 Fair CLR 12 -1 41% 76 0.0
05 11:35 N 19 16.09 Fair CLR 12 -1 41% 75.97 0.0
05 11:15 Vrbl 11 G 22 16.09 Fair CLR 11 -1 44% 75.97 0.0
05 10:35 NE 9 G 19 16.09 Fair CLR 11 1 50% 75.95 0.0
05 10:15 NE 7 16.09 Fair CLR 10 1 54% 9 75.95 0.0
05 09:55 N 13 16.09 Fair CLR 10 2 58% 8 75.95 0.0
05 09:35 N 13 16.09 Fair CLR 9 2 62% 7 75.97 0.0
05 09:15 N 11 16.09 Fair CLR 9 2 62% 8 75.95 0.0
05 08:55 N 13 16.09 A Few Clouds FEW120 9 2 62% 7 75.92 0.0
05 08:35 N 13 16.09 Fair CLR 8 2 66% 6 75.92 0.0
05 08:15 N 13 16.09 Fair CLR 8 3 71% 6 75.87 0.0
05 07:55 NW 6 16.09 Fair CLR 7 3 76% 75.87 0.0
05 07:35 Calm 16.09 Fair CLR 7 3 76% 75.82 0.0
05 07:15 N 6 16.09 Fair CLR 6 3 81% 75.79 0.0
05 06:55 Calm 16.09 Fair CLR 6 2 76% 75.79 0.0
05 06:35 Calm 16.09 Fair CLR 7 2 71% 75.79 0.0
05 06:15 Calm 16.09 Fair CLR 7 2 71% 75.82 0.0
05 05:55 Calm 16.09 Fair CLR 7 3 76% 75.82 0.0
05 05:35 Calm 16.09 Fair CLR 6 3 81% 75.82 0.0
05 05:15 W 13 16.09 Fair CLR 6 4 87% 4 75.79 0.0
05 04:55 W 7 16.09 Fair CLR 7 4 81% 6 75.79 0.0
05 04:35 W 9 16.09 Fair CLR 6 4 87% 4 75.77 0.0
05 04:15 NW 15 16.09 Fair CLR 7 4 81% 5 75.72 0.0
05 03:55 NW 11 16.09 Fair CLR 6 4 87% 4 75.72 0.0
05 03:35 Calm 16.09 Fair CLR 7 4 81% 75.69 0.0
05 03:15 N 11 16.09 Fair CLR 7 4 81% 5 75.69 0.0
05 02:55 NW 11 16.09 Fair CLR 7 5 87% 5 75.67 0.0
05 02:35 N 7 16.09 Partly Cloudy FEW085 SCT120 8 5 82% 7 75.67 0.0
05 02:15 N 7 16.09 Mostly Cloudy BKN095 BKN120 8 6 87% 7 75.67 0.0
05 01:55 NW 7 16.09 Mostly Cloudy FEW048 FEW075 BKN100 8 7 93% 7 75.67 0.0
05 01:35 E 6 16.09 Mostly Cloudy FEW039 SCT050 BKN060 9 7 87% 75.64 0.0
05 01:15 N 6 16.09 Mostly Cloudy FEW034 SCT055 BKN075 8 7 93% 75.69 0.0
05 00:55 Calm 16.09 Mostly Cloudy FEW034 SCT043 BKN055 9 6 82% 75.72 0.0 0.08
05 00:35 SW 11 16.09 Mostly Cloudy FEW040 SCT048 BKN070 9 6 82% 8 75.74 0.0
05 00:15 N 9 G 24 11.27 Mostly Cloudy FEW039 SCT048 BKN060 9 4 71% 8 75.64 0.0
04 23:55 N 7 16.09 Overcast BKN060 BKN065 OVC075 10 3 62% 9 75.69 0.0
04 23:35 N 13 G 30 16.09 Overcast FEW055 BKN065 OVC100 11 1 50% 75.69 0.0
04 23:15 N 19 16.09 Overcast FEW055 SCT080 OVC100 11 1 50% 75.62 0.0
04 22:55 N 22 16.09 Overcast SCT080 OVC110 12 0 44% 75.67 0.0
04 22:35 N 17 16.09 Mostly Cloudy BKN110 12 0 44% 75.64 0.0
04 22:15 N 20 16.09 A Few Clouds FEW120 12 0 44% 75.67 0.0
04 21:55 N 28 16.09 A Few Clouds FEW110 13 -1 38% 75.64 0.0
04 21:35 N 24 G 35 16.09 Partly Cloudy FEW090 SCT120 13 -1 38% 75.62 0.0
04 21:15 N 26 16.09 Partly Cloudy FEW090 SCT120 13 -1 38% 75.59 0.0
04 20:55 N 35 G 46 16.09 A Few Clouds and Breezy FEW110 13 -1 38% 75.57 0.0
04 20:35 N 35 G 46 16.09 Fair and Breezy CLR 13 -1 38% 75.54 0.0
04 20:15 N 35 G 52 16.09 Fair and Breezy CLR 14 0 39% 75.51 0.0
04 19:55 N 31 G 50 16.09 Fair CLR 15 0 36% 75.49 0.0
04 19:35 N 43 G 54 16.09 Fair and Windy CLR 16 0 34% 75.46 0.0
04 19:15 N 33 G 44 16.09 Fair and Breezy CLR 18 0 30% 75.41 0.0
04 18:55 N 39 G 52 16.09 Fair and Breezy CLR 19 1 30% 75.36 0.0
04 18:35 N 44 G 56 16.09 Fair and Windy CLR 20 1 28% 75.31 0.0
04 18:15 N 41 G 52 16.09 Fair and Breezy CLR 21 1 27% 75.31 0.0
04 17:55 N 31 G 52 16.09 Fair CLR 22 1 25% 75.31 0.0
04 17:35 NW 39 G 56 16.09 Fair and Breezy CLR 22 2 27% 75.26 0.0
04 17:15 N 33 G 50 16.09 Fair and Breezy CLR 23 2 25% 75.26 0.0
04 16:55 N 24 G 43 16.09 Fair CLR 23 2 25% 75.23 0.0
04 16:35 NW 31 16.09 Fair CLR 23 2 25% 75.21 0.0
04 16:15 N 31 16.09 Fair CLR 24 3 25% 25 75.18 0.0
04 15:55 N 30 G 46 16.09 Fair CLR 24 3 25% 25 75.18 0.0
04 15:35 N 26 G 43 16.09 Fair CLR 24 5 29% 25 75.16 0.0
04 15:15 NW 33 G 44 16.09 Fair and Breezy CLR 25 6 30% 25 75.16 0.0
04 14:55 N 26 G 46 16.09 Fair CLR 25 6 30% 25 75.16 0.0
04 14:35 NW 35 16.09 Fair and Breezy CLR 25 8 34% 26 75.13 0.0
04 14:15 NW 30 G 48 16.09 Fair CLR 25 7 32% 25 75.13 0.0
04 13:55 NW 33 G 44 16.09 Fair and Breezy CLR 26 7 30% 26 75.13 0.0
04 13:35 NW 24 G 48 16.09 Fair CLR 26 6 28% 26 75.11 0.0
04 13:15 NW 31 16.09 Fair CLR 26 5 26% 26 75.11 0.0
04 12:55 W 31 G 41 16.09 Fair CLR 25 5 28% 25 75.13 0.0
04 12:35 NW 39 16.09 Fair and Breezy CLR 25 5 28% 25 75.13 0.0
04 12:15 W 31 G 50 16.09 Fair CLR 25 6 30% 25 75.13 0.0
04 11:55 NW 24 G 39 16.09 Fair CLR 24 7 34% 25 75.13 0.0
04 11:35 NW 33 G 46 16.09 Fair and Breezy CLR 24 6 31% 25 75.16 0.0
04 11:15 W 19 G 33 16.09 Fair CLR 23 7 36% 75.13 0.0
04 10:55 W 24 G 35 16.09 Fair CLR 23 7 36% 75.13 0.0
04 10:35 W 20 16.09 Fair CLR 21 7 40% 75.16 0.0
04 10:15 SW 20 16.09 Fair CLR 20 8 46% 75.16 0.0
04 09:55 W 22 16.09 Fair CLR 20 7 43% 75.16 0.0
04 09:35 W 22 16.09 Fair CLR 19 6 43% 75.16 0.0
04 09:15 W 17 G 28 16.09 Fair CLR 18 6 46% 75.16 0.0
04 08:55 SW 11 16.09 Fair CLR 16 8 59% 75.18 0.0
04 08:35 Calm 16.09 Fair CLR 14 7 63% 75.18 0.0
04 08:15 Calm 16.09 Fair CLR 12 6 67% 75.18 0.0
04 07:55 Calm 16.09 Fair CLR 10 6 76% 75.21 0.0
04 07:35 Calm 16.09 Partly Cloudy SCT100 9 6 82% 75.18 0.0
04 06:55 Calm 16.09 Fair CLR 6 3 81% 75.21 0.0
04 06:35 Calm 16.09 Partly Cloudy SCT110 5 3 87% 75.21 0.0
04 06:15 Calm 16.09 Mostly Cloudy BKN110 6 3 81% 75.21 0.0
04 05:55 Calm 16.09 A Few Clouds FEW110 6 3 81% 75.21 0.0
04 05:35 Calm 16.09 A Few Clouds FEW120 5 3 87% 75.21 0.0
04 05:15 Calm 16.09 A Few Clouds FEW120 5 2 81% 75.23 0.0
04 04:55 NE 6 16.09 Fair CLR 5 3 87% 75.23 0.0
04 04:35 Calm 16.09 Fair CLR 5 2 81% 75.26 0.0
04 04:15 Calm 16.09 Fair CLR 7 3 76% 75.26 0.0
04 03:55 Calm 16.09 Fair CLR 6 3 81% 75.29 0.0
04 03:35 Calm 16.09 Fair CLR 6 3 81% 75.29 0.0
04 03:15 Calm 16.09 Fair CLR 6 2 76% 75.31 0.0
04 02:55 Calm 16.09 Fair CLR 7 3 76% 75.34 0.0
04 02:35 Calm 16.09 Fair CLR 8 3 71% 75.36 0.0
04 02:15 Calm 16.09 Fair CLR 7 2 71% 75.39 0.0
04 01:55 Calm 16.09 Fair CLR 8 2 66% 75.41 0.0
04 01:35 Calm 16.09 Fair CLR 8 2 66% 75.44 0.0
04 01:15 Calm 16.09 Fair CLR 8 3 71% 75.46 0.0
04 00:55 Calm 16.09 Fair CLR 8 2 66% 75.49 0.0
04 00:35 Calm 16.09 Fair CLR 9 2 62% 75.49 0.0
04 00:15 Calm 16.09 Fair CLR 10 2 58% 75.51 0.0
03 23:55 Calm 16.09 Fair CLR 10 2 58% 75.51 0.0
03 23:35 Calm 16.09 Fair CLR 10 2 58% 75.54 0.0
03 23:15 Calm 16.09 Fair CLR 11 3 58% 75.54 0.0
03 22:55 SW 6 16.09 Fair CLR 11 2 54% 75.57 0.0
03 22:35 S 6 16.09 Fair CLR 11 2 54% 75.57 0.0
03 22:15 Calm 16.09 Fair CLR 13 2 47% 75.59 0.0
03 21:55 Calm 16.09 Fair CLR 13 2 47% 75.59 0.0
03 21:35 Calm 16.09 Fair CLR 14 1 41% 75.59 0.0
03 21:15 Calm 16.09 Fair CLR 14 1 41% 75.62 0.0
03 20:55 W 7 16.09 Fair CLR 14 2 44% 75.62 0.0
03 20:35 W 11 16.09 Fair CLR 17 1 34% 75.62 0.0
03 20:15 W 11 16.09 Fair CLR 18 1 32% 75.62 0.0
03 19:55 W 9 16.09 Fair CLR 19 2 32% 75.62 0.0
03 19:35 W 15 16.09 Fair CLR 20 3 33% 75.62 0.0
03 19:15 W 15 16.09 Fair CLR 21 3 31% 75.62 0.0
03 18:55 W 17 16.09 Fair CLR 21 3 31% 75.64 0.0
03 18:35 NW 13 G 22 16.09 Fair CLR 22 3 29% 75.64 0.0
03 18:15 NW 15 16.09 Fair CLR 22 2 27% 75.67 0.0
03 17:55 Vrbl 11 G 20 16.09 Fair CLR 22 3 29% 75.67 0.0
03 17:35 W 24 G 33 16.09 Fair CLR 22 2 27% 75.67 0.0
03 17:15 NW 19 G 30 16.09 Fair CLR 22 2 27% 75.67 0.0
03 16:55 NW 17 16.09 Fair CLR 22 3 29% 75.67 0.0
03 16:35 NW 24 G 33 16.09 Fair CLR 22 2 27% 75.69 0.0
03 16:15 NW 11 G 30 16.09 Fair CLR 22 2 27% 75.72 0.0
03 15:55 N 26 16.09 Fair CLR 22 2 27% 75.72 0.0
03 15:35 NW 30 G 39 16.09 Fair CLR 22 1 25% 75.74 0.0
03 15:15 NW 15 G 35 16.09 Fair CLR 21 2 29% 75.77 0.0
03 14:55 N 22 G 39 16.09 Fair CLR 22 1 25% 75.77 0.0
03 14:35 N 31 16.09 Fair CLR 22 1 25% 75.77 0.0
03 14:15 NW 26 G 39 16.09 Fair CLR 21 1 27% 75.79 0.0
03 13:55 N 33 G 48 16.09 Fair and Breezy CLR 21 1 27% 75.79 0.0
03 13:35 N 19 G 35 16.09 Fair CLR 21 2 29% 75.82 0.0
03 13:15 NW 28 G 41 16.09 Fair CLR 21 2 29% 75.82 0.0
03 12:55 NW 31 16.09 Fair CLR 21 2 29% 75.82 0.0
03 12:35 NW 28 G 41 16.09 Fair CLR 21 4 33% 75.82 0.0
03 12:15 N 22 G 37 16.09 Fair CLR 20 3 33% 75.84 0.0
03 11:55 N 24 G 39 16.09 Fair CLR 20 3 33% 75.84 0.0
03 11:35 NW 20 G 33 16.09 Fair CLR 19 3 35% 75.84 0.0
03 11:15 N 17 16.09 Fair CLR 19 4 37% 75.84 0.0
03 10:55 NW 13 G 24 16.09 Fair CLR 19 4 37% 75.82 0.0
03 10:35 NW 15 16.09 Fair CLR 17 5 45% 75.82 0.0
03 10:15 NW 17 G 28 16.09 Fair CLR 17 5 45% 75.82 0.0
03 09:55 NW 19 16.09 Fair CLR 16 4 45% 75.82 0.0
03 09:35 W 19 16.09 Fair CLR 15 4 48% 75.82 0.0
03 09:15 NW 17 16.09 Fair CLR 16 4 45% 75.82 0.0
03 08:55 SW 13 G 22 16.09 Fair CLR 14 3 48% 75.79 0.0
03 08:35 W 22 16.09 Fair CLR 14 3 48% 75.79 0.0
03 08:15 SW 17 G 28 16.09 Fair CLR 13 2 47% 75.79 0.0
03 07:55 SW 22 16.09 Fair CLR 13 2 47% 75.77 0.0
03 07:35 SW 20 16.09 Fair CLR 13 2 47% 75.77 0.0
03 07:15 SW 20 16.09 Fair CLR 11 2 54% 75.77 0.0
03 06:55 S 11 16.09 Fair CLR 9 2 62% 8 75.77 0.0
03 06:35 S 15 16.09 Fair CLR 8 1 62% 6 75.77 0.0
03 06:15 S 15 16.09 Fair CLR 6 1 71% 3 75.74 0.0
03 05:35 SW 7 16.09 Fair CLR 7 1 66% 6 75.82 0.0
03 05:15 W 7 16.09 Fair CLR 8 1 62% 7 75.82 0.0
03 04:55 W 11 16.09 Fair CLR 8 1 62% 6 75.82 0.0
03 04:35 SW 19 16.09 Fair CLR 9 1 58% 7 75.74 0.0
03 04:15 S 15 16.09 Fair CLR 9 1 58% 7 75.77 0.0
03 03:55 S 19 16.09 Fair CLR 9 1 58% 7 75.79 0.0
03 03:35 S 19 16.09 Fair CLR 9 1 58% 7 75.79 0.0
03 03:15 S 20 16.09 Fair CLR 9 1 58% 6 75.79 0.0
03 02:55 S 19 16.09 Fair CLR 9 1 58% 7 75.82 0.0
03 02:35 S 19 16.09 Fair CLR 9 0 54% 7 75.84 0.0
03 02:15 S 17 16.09 Fair CLR 9 0 54% 7 75.87 0.0
03 01:55 S 22 16.09 Fair CLR 10 0 50% 7 75.87 0.0
03 01:35 S 20 16.09 Fair CLR 10 0 50% 8 75.9 0.0
03 01:15 S 20 16.09 Fair CLR 10 0 50% 8 75.92 0.0
03 00:55 S 19 16.09 Fair CLR 10 0 50% 8 75.92 0.0
03 00:35 S 20 16.09 Fair CLR 11 0 47% 75.95 0.0
03 00:15 S 19 16.09 Fair CLR 11 0 47% 75.95 0.0
02 23:55 S 19 16.09 Fair CLR 11 -1 44% 75.95 0.0
02 23:35 S 17 G 26 16.09 Fair CLR 11 -1 44% 75.97 0.0
02 23:15 S 13 16.09 Fair CLR 10 -1 47% 8 76 0.0
02 22:55 S 13 16.09 Fair CLR 11 -1 44% 76 0.0
02 22:35 S 15 16.09 Fair CLR 11 -1 44% 76.02 0.0
02 22:15 S 13 16.09 Fair CLR 11 -1 44% 76.05 0.0
02 21:55 S 11 16.09 Fair CLR 11 -1 44% 76.05 0.0
02 21:35 S 11 16.09 Fair CLR 11 -1 44% 76.07 0.0
02 21:15 S 11 16.09 Fair CLR 12 -1 41% 76.07 0.0
02 20:55 S 11 16.09 A Few Clouds FEW120 13 -1 38% 76.1 0.0
02 20:35 S 11 16.09 A Few Clouds FEW120 13 -2 36% 76.1 0.0
02 20:15 S 13 16.09 Fair CLR 14 -1 36% 76.12 0.0
02 19:55 S 13 16.09 Fair CLR 15 -1 34% 76.12 0.0
02 19:35 SW 13 16.09 Fair CLR 16 -1 31% 76.12 0.0
02 19:15 SW 17 16.09 Fair CLR 17 -2 27% 76.15 0.0
02 18:55 SW 17 16.09 Fair CLR 17 -2 27% 76.15 0.0
02 18:35 SW 13 G 28 16.09 Fair CLR 17 -2 27% 76.17 0.0
02 18:15 W 19 G 28 16.09 Fair CLR 18 -2 26% 76.2 0.0
02 17:55 W 17 G 28 16.09 Fair CLR 18 -1 28% 76.23 0.0
02 17:35 SW 22 16.09 Fair CLR 18 -1 28% 76.23 0.0
02 17:15 W 24 16.09 Fair CLR 18 -1 28% 76.23 0.0
02 16:55 SW 20 G 37 16.09 Fair CLR 18 -2 26% 76.25 0.0
02 16:35 NW 19 G 37 16.09 Fair CLR 17 -3 25% 76.28 0.0
02 16:15 Calm 16.09 Fair CLR 17 -3 25% 76.28 0.0
02 15:55 W 11 16.09 Fair CLR 17 0 32% 76.33 0.0
02 15:35 NW 22 16.09 Fair CLR 17 -2 27% 76.35 0.0
02 15:15 W 19 16.09 Fair CLR 17 -1 30% 76.38 0.0
02 14:55 W 19 G 28 16.09 Fair CLR 16 -2 29% 76.4 0.0
02 14:35 W 15 G 30 16.09 Fair CLR 16 -1 31% 76.43 0.0
02 14:15 Calm 16.09 Fair CLR 16 -2 29% 76.45 0.0
Date Time (cdt) Wind (kph) Vis. (km) Weather Sky Cond. Air Dwpt Max. Min. Relative Humidity Wind Chill (°C) Heat Index (°C) altimeter (cm) sea level (mb) 1 hr 3 hr 6 hr
6 hour
Temperature (ºC) Pressure Precipitation (cm)